sensor_id;sensor_type;location;lat;lon;timestamp;P1;durP1;ratioP1;P2;durP2;ratioP2
44850;SDS011;30583;48.714;9.386;2024-03-29T00:00:37;7.57;;;2.83;;
44850;SDS011;30583;48.714;9.386;2024-03-29T00:03:03;6.50;;;2.72;;
44850;SDS011;30583;48.714;9.386;2024-03-29T00:05:29;6.25;;;2.95;;
44850;SDS011;30583;48.714;9.386;2024-03-29T00:07:55;7.85;;;2.78;;
44850;SDS011;30583;48.714;9.386;2024-03-29T00:10:20;8.52;;;4.15;;
44850;SDS011;30583;48.714;9.386;2024-03-29T00:12:46;9.25;;;3.30;;
44850;SDS011;30583;48.714;9.386;2024-03-29T00:15:11;8.70;;;3.65;;
44850;SDS011;30583;48.714;9.386;2024-03-29T00:17:37;10.00;;;3.40;;
44850;SDS011;30583;48.714;9.386;2024-03-29T00:20:02;7.32;;;3.67;;
44850;SDS011;30583;48.714;9.386;2024-03-29T00:22:29;7.53;;;3.30;;
44850;SDS011;30583;48.714;9.386;2024-03-29T00:24:55;7.90;;;3.00;;
44850;SDS011;30583;48.714;9.386;2024-03-29T00:27:20;14.55;;;7.07;;
44850;SDS011;30583;48.714;9.386;2024-03-29T00:29:50;10.43;;;4.30;;
44850;SDS011;30583;48.714;9.386;2024-03-29T00:32:18;9.80;;;4.05;;
44850;SDS011;30583;48.714;9.386;2024-03-29T00:34:44;8.55;;;3.30;;
44850;SDS011;30583;48.714;9.386;2024-03-29T00:37:10;9.02;;;2.75;;
44850;SDS011;30583;48.714;9.386;2024-03-29T00:39:38;6.93;;;3.15;;
44850;SDS011;30583;48.714;9.386;2024-03-29T00:42:04;8.05;;;3.42;;
44850;SDS011;30583;48.714;9.386;2024-03-29T00:44:33;8.80;;;3.13;;
44850;SDS011;30583;48.714;9.386;2024-03-29T00:47:03;7.53;;;2.75;;
44850;SDS011;30583;48.714;9.386;2024-03-29T00:49:29;8.57;;;2.92;;
44850;SDS011;30583;48.714;9.386;2024-03-29T00:51:54;9.20;;;2.85;;
44850;SDS011;30583;48.714;9.386;2024-03-29T00:54:20;7.30;;;2.90;;
44850;SDS011;30583;48.714;9.386;2024-03-29T00:56:46;7.25;;;2.85;;
44850;SDS011;30583;48.714;9.386;2024-03-29T00:59:11;6.63;;;3.30;;
44850;SDS011;30583;48.714;9.386;2024-03-29T01:01:37;7.95;;;3.17;;
44850;SDS011;30583;48.714;9.386;2024-03-29T01:04:03;8.30;;;3.00;;
44850;SDS011;30583;48.714;9.386;2024-03-29T01:06:29;8.07;;;2.90;;
44850;SDS011;30583;48.714;9.386;2024-03-29T01:08:54;7.38;;;3.47;;
44850;SDS011;30583;48.714;9.386;2024-03-29T01:11:20;8.57;;;2.63;;
44850;SDS011;30583;48.714;9.386;2024-03-29T01:13:45;5.25;;;2.42;;
44850;SDS011;30583;48.714;9.386;2024-03-29T01:16:11;6.10;;;2.40;;
44850;SDS011;30583;48.714;9.386;2024-03-29T01:18:36;5.95;;;2.53;;
44850;SDS011;30583;48.714;9.386;2024-03-29T01:21:02;6.40;;;2.55;;
44850;SDS011;30583;48.714;9.386;2024-03-29T01:23:27;11.23;;;2.58;;
44850;SDS011;30583;48.714;9.386;2024-03-29T01:25:53;5.25;;;2.20;;
44850;SDS011;30583;48.714;9.386;2024-03-29T01:28:19;6.10;;;2.45;;
44850;SDS011;30583;48.714;9.386;2024-03-29T01:30:51;6.03;;;2.38;;
44850;SDS011;30583;48.714;9.386;2024-03-29T01:33:17;3.97;;;1.85;;
44850;SDS011;30583;48.714;9.386;2024-03-29T01:35:43;4.75;;;2.20;;
44850;SDS011;30583;48.714;9.386;2024-03-29T01:38:09;5.65;;;2.10;;
44850;SDS011;30583;48.714;9.386;2024-03-29T01:40:34;5.68;;;2.50;;
44850;SDS011;30583;48.714;9.386;2024-03-29T01:43:00;5.25;;;2.15;;
44850;SDS011;30583;48.714;9.386;2024-03-29T01:45:26;4.20;;;2.42;;
44850;SDS011;30583;48.714;9.386;2024-03-29T01:47:52;4.60;;;2.85;;
44850;SDS011;30583;48.714;9.386;2024-03-29T01:50:18;4.85;;;2.10;;
44850;SDS011;30583;48.714;9.386;2024-03-29T01:52:43;5.18;;;2.50;;
44850;SDS011;30583;48.714;9.386;2024-03-29T01:55:10;6.00;;;2.22;;
44850;SDS011;30583;48.714;9.386;2024-03-29T01:57:35;6.32;;;2.17;;
44850;SDS011;30583;48.714;9.386;2024-03-29T02:00:01;3.97;;;1.88;;
44850;SDS011;30583;48.714;9.386;2024-03-29T02:02:30;6.38;;;2.00;;
44850;SDS011;30583;48.714;9.386;2024-03-29T02:04:57;3.63;;;1.50;;
44850;SDS011;30583;48.714;9.386;2024-03-29T02:07:23;4.57;;;1.20;;
44850;SDS011;30583;48.714;9.386;2024-03-29T02:09:50;2.63;;;1.30;;
44850;SDS011;30583;48.714;9.386;2024-03-29T02:12:15;3.70;;;1.23;;
44850;SDS011;30583;48.714;9.386;2024-03-29T02:14:41;5.47;;;1.63;;
44850;SDS011;30583;48.714;9.386;2024-03-29T02:17:07;5.00;;;1.60;;
44850;SDS011;30583;48.714;9.386;2024-03-29T02:19:33;4.22;;;2.08;;
44850;SDS011;30583;48.714;9.386;2024-03-29T02:21:59;4.70;;;2.30;;
44850;SDS011;30583;48.714;9.386;2024-03-29T02:24:26;6.60;;;2.90;;
44850;SDS011;30583;48.714;9.386;2024-03-29T02:26:53;5.07;;;2.15;;
44850;SDS011;30583;48.714;9.386;2024-03-29T02:29:21;4.32;;;2.05;;
44850;SDS011;30583;48.714;9.386;2024-03-29T02:31:46;3.28;;;1.90;;
44850;SDS011;30583;48.714;9.386;2024-03-29T02:34:12;3.30;;;1.70;;
44850;SDS011;30583;48.714;9.386;2024-03-29T02:36:37;4.68;;;1.80;;
44850;SDS011;30583;48.714;9.386;2024-03-29T02:39:03;4.40;;;1.80;;
44850;SDS011;30583;48.714;9.386;2024-03-29T02:41:29;5.20;;;2.22;;
44850;SDS011;30583;48.714;9.386;2024-03-29T02:43:55;5.20;;;2.13;;
44850;SDS011;30583;48.714;9.386;2024-03-29T02:46:21;3.95;;;2.08;;
44850;SDS011;30583;48.714;9.386;2024-03-29T02:48:47;3.83;;;2.13;;
44850;SDS011;30583;48.714;9.386;2024-03-29T02:51:12;3.55;;;1.95;;
44850;SDS011;30583;48.714;9.386;2024-03-29T02:53:38;4.90;;;1.95;;
44850;SDS011;30583;48.714;9.386;2024-03-29T02:56:04;3.75;;;1.77;;
44850;SDS011;30583;48.714;9.386;2024-03-29T02:58:32;7.50;;;2.40;;
44850;SDS011;30583;48.714;9.386;2024-03-29T03:01:04;4.35;;;1.90;;
44850;SDS011;30583;48.714;9.386;2024-03-29T03:03:31;3.92;;;1.98;;
44850;SDS011;30583;48.714;9.386;2024-03-29T03:05:57;4.30;;;1.95;;
44850;SDS011;30583;48.714;9.386;2024-03-29T03:08:22;8.77;;;2.10;;
44850;SDS011;30583;48.714;9.386;2024-03-29T03:11:07;3.70;;;2.10;;
44850;SDS011;30583;48.714;9.386;2024-03-29T03:13:32;4.00;;;1.65;;
44850;SDS011;30583;48.714;9.386;2024-03-29T03:15:58;2.78;;;1.70;;
44850;SDS011;30583;48.714;9.386;2024-03-29T03:18:23;4.53;;;1.92;;
44850;SDS011;30583;48.714;9.386;2024-03-29T03:20:53;4.18;;;1.80;;
44850;SDS011;30583;48.714;9.386;2024-03-29T03:23:19;3.50;;;1.95;;
44850;SDS011;30583;48.714;9.386;2024-03-29T03:25:46;7.13;;;1.75;;
44850;SDS011;30583;48.714;9.386;2024-03-29T03:28:18;14.95;;;8.35;;
44850;SDS011;30583;48.714;9.386;2024-03-29T03:30:43;5.25;;;2.72;;
44850;SDS011;30583;48.714;9.386;2024-03-29T03:33:09;5.45;;;3.08;;
44850;SDS011;30583;48.714;9.386;2024-03-29T03:35:35;3.65;;;2.25;;
44850;SDS011;30583;48.714;9.386;2024-03-29T03:38:00;4.80;;;1.73;;
44850;SDS011;30583;48.714;9.386;2024-03-29T03:40:26;3.47;;;1.85;;
44850;SDS011;30583;48.714;9.386;2024-03-29T03:42:52;2.67;;;1.60;;
44850;SDS011;30583;48.714;9.386;2024-03-29T03:45:17;2.83;;;1.55;;
44850;SDS011;30583;48.714;9.386;2024-03-29T03:47:43;4.95;;;2.67;;
44850;SDS011;30583;48.714;9.386;2024-03-29T03:50:08;3.75;;;1.75;;
44850;SDS011;30583;48.714;9.386;2024-03-29T03:52:34;4.15;;;1.70;;
44850;SDS011;30583;48.714;9.386;2024-03-29T03:55:00;4.32;;;1.75;;
44850;SDS011;30583;48.714;9.386;2024-03-29T03:57:25;3.55;;;1.80;;
44850;SDS011;30583;48.714;9.386;2024-03-29T03:59:51;4.78;;;1.85;;
44850;SDS011;30583;48.714;9.386;2024-03-29T04:02:16;3.25;;;1.73;;
44850;SDS011;30583;48.714;9.386;2024-03-29T04:04:42;5.35;;;2.33;;
44850;SDS011;30583;48.714;9.386;2024-03-29T04:07:07;4.57;;;2.13;;
44850;SDS011;30583;48.714;9.386;2024-03-29T04:09:33;4.18;;;1.70;;
44850;SDS011;30583;48.714;9.386;2024-03-29T04:11:58;5.43;;;2.67;;
44850;SDS011;30583;48.714;9.386;2024-03-29T04:14:24;5.32;;;2.97;;
44850;SDS011;30583;48.714;9.386;2024-03-29T04:16:50;4.47;;;2.03;;
44850;SDS011;30583;48.714;9.386;2024-03-29T04:19:15;3.88;;;1.98;;
44850;SDS011;30583;48.714;9.386;2024-03-29T04:21:41;4.32;;;2.25;;
44850;SDS011;30583;48.714;9.386;2024-03-29T04:24:06;3.70;;;1.65;;
44850;SDS011;30583;48.714;9.386;2024-03-29T04:26:34;3.63;;;1.80;;
44850;SDS011;30583;48.714;9.386;2024-03-29T04:29:01;4.82;;;2.10;;
44850;SDS011;30583;48.714;9.386;2024-03-29T04:31:27;3.78;;;2.10;;
44850;SDS011;30583;48.714;9.386;2024-03-29T04:33:52;5.85;;;2.85;;
44850;SDS011;30583;48.714;9.386;2024-03-29T04:36:18;5.90;;;2.05;;
44850;SDS011;30583;48.714;9.386;2024-03-29T04:38:44;4.75;;;1.95;;
44850;SDS011;30583;48.714;9.386;2024-03-29T04:41:09;4.47;;;2.05;;
44850;SDS011;30583;48.714;9.386;2024-03-29T04:43:35;5.13;;;2.58;;
44850;SDS011;30583;48.714;9.386;2024-03-29T04:48:31;3.83;;;1.90;;
44850;SDS011;30583;48.714;9.386;2024-03-29T04:50:57;4.00;;;2.15;;
44850;SDS011;30583;48.714;9.386;2024-03-29T04:53:23;4.10;;;2.20;;
44850;SDS011;30583;48.714;9.386;2024-03-29T04:55:57;3.17;;;1.65;;
44850;SDS011;30583;48.714;9.386;2024-03-29T04:58:24;3.75;;;1.73;;
44850;SDS011;30583;48.714;9.386;2024-03-29T05:00:53;4.20;;;2.20;;
44850;SDS011;30583;48.714;9.386;2024-03-29T05:03:19;3.80;;;1.60;;
44850;SDS011;30583;48.714;9.386;2024-03-29T05:05:46;3.45;;;1.80;;
44850;SDS011;30583;48.714;9.386;2024-03-29T05:08:12;4.20;;;1.70;;
44850;SDS011;30583;48.714;9.386;2024-03-29T05:10:41;3.35;;;1.60;;
44850;SDS011;30583;48.714;9.386;2024-03-29T05:13:07;22.50;;;9.63;;
44850;SDS011;30583;48.714;9.386;2024-03-29T05:15:33;12.95;;;5.65;;
44850;SDS011;30583;48.714;9.386;2024-03-29T05:17:59;7.97;;;3.45;;
44850;SDS011;30583;48.714;9.386;2024-03-29T05:20:25;7.32;;;2.65;;
44850;SDS011;30583;48.714;9.386;2024-03-29T05:22:50;4.38;;;2.10;;
44850;SDS011;30583;48.714;9.386;2024-03-29T05:25:16;6.07;;;2.22;;
44850;SDS011;30583;48.714;9.386;2024-03-29T05:27:41;7.43;;;2.88;;
44850;SDS011;30583;48.714;9.386;2024-03-29T05:30:07;27.17;;;14.90;;
44850;SDS011;30583;48.714;9.386;2024-03-29T05:32:34;7.55;;;3.88;;
44850;SDS011;30583;48.714;9.386;2024-03-29T05:35:01;5.43;;;2.88;;
44850;SDS011;30583;48.714;9.386;2024-03-29T05:37:26;8.43;;;3.10;;
44850;SDS011;30583;48.714;9.386;2024-03-29T05:39:52;6.10;;;3.05;;
44850;SDS011;30583;48.714;9.386;2024-03-29T05:42:27;6.68;;;2.60;;
44850;SDS011;30583;48.714;9.386;2024-03-29T05:44:54;6.00;;;2.20;;
44850;SDS011;30583;48.714;9.386;2024-03-29T05:47:19;4.25;;;2.30;;
44850;SDS011;30583;48.714;9.386;2024-03-29T05:49:45;4.38;;;2.20;;
44850;SDS011;30583;48.714;9.386;2024-03-29T05:52:11;3.47;;;1.90;;
44850;SDS011;30583;48.714;9.386;2024-03-29T05:54:39;7.28;;;4.43;;
44850;SDS011;30583;48.714;9.386;2024-03-29T05:57:06;6.75;;;3.40;;
44850;SDS011;30583;48.714;9.386;2024-03-29T05:59:32;5.45;;;2.15;;
44850;SDS011;30583;48.714;9.386;2024-03-29T06:01:57;4.68;;;2.08;;
44850;SDS011;30583;48.714;9.386;2024-03-29T06:04:23;3.85;;;1.75;;
44850;SDS011;30583;48.714;9.386;2024-03-29T06:06:55;3.08;;;1.45;;
44850;SDS011;30583;48.714;9.386;2024-03-29T06:09:23;4.07;;;1.73;;
44850;SDS011;30583;48.714;9.386;2024-03-29T06:11:48;3.72;;;1.55;;
44850;SDS011;30583;48.714;9.386;2024-03-29T06:14:14;4.22;;;1.52;;
44850;SDS011;30583;48.714;9.386;2024-03-29T06:16:58;2.47;;;1.25;;
44850;SDS011;30583;48.714;9.386;2024-03-29T06:19:42;2.55;;;1.50;;
44850;SDS011;30583;48.714;9.386;2024-03-29T06:22:07;4.85;;;1.85;;
44850;SDS011;30583;48.714;9.386;2024-03-29T06:24:34;4.63;;;2.00;;
44850;SDS011;30583;48.714;9.386;2024-03-29T06:27:00;6.60;;;2.63;;
44850;SDS011;30583;48.714;9.386;2024-03-29T06:29:25;6.13;;;2.17;;
44850;SDS011;30583;48.714;9.386;2024-03-29T06:31:51;4.30;;;1.67;;
44850;SDS011;30583;48.714;9.386;2024-03-29T06:34:17;3.83;;;1.65;;
44850;SDS011;30583;48.714;9.386;2024-03-29T06:36:42;5.18;;;1.75;;
44850;SDS011;30583;48.714;9.386;2024-03-29T06:39:08;2.92;;;1.30;;
44850;SDS011;30583;48.714;9.386;2024-03-29T06:41:33;2.08;;;1.05;;
44850;SDS011;30583;48.714;9.386;2024-03-29T06:43:59;10.32;;;6.82;;
44850;SDS011;30583;48.714;9.386;2024-03-29T06:46:25;3.58;;;1.98;;
44850;SDS011;30583;48.714;9.386;2024-03-29T06:48:50;2.42;;;1.40;;
44850;SDS011;30583;48.714;9.386;2024-03-29T06:51:16;2.25;;;1.00;;
44850;SDS011;30583;48.714;9.386;2024-03-29T06:53:42;3.47;;;1.17;;
44850;SDS011;30583;48.714;9.386;2024-03-29T06:56:07;1.73;;;1.15;;
44850;SDS011;30583;48.714;9.386;2024-03-29T06:58:33;2.25;;;1.00;;
44850;SDS011;30583;48.714;9.386;2024-03-29T07:00:58;1.90;;;0.90;;
44850;SDS011;30583;48.714;9.386;2024-03-29T07:03:24;1.52;;;0.60;;
44850;SDS011;30583;48.714;9.386;2024-03-29T07:05:49;2.75;;;0.90;;
44850;SDS011;30583;48.714;9.386;2024-03-29T07:08:15;1.80;;;0.90;;
44850;SDS011;30583;48.714;9.386;2024-03-29T07:10:42;20.33;;;9.55;;
44850;SDS011;30583;48.714;9.386;2024-03-29T07:13:07;18.27;;;8.45;;
44850;SDS011;30583;48.714;9.386;2024-03-29T07:15:34;13.20;;;5.75;;
44850;SDS011;30583;48.714;9.386;2024-03-29T07:18:00;37.85;;;15.93;;
44850;SDS011;30583;48.714;9.386;2024-03-29T07:20:28;156.57;;;82.05;;
44850;SDS011;30583;48.714;9.386;2024-03-29T07:22:53;122.28;;;64.97;;
44850;SDS011;30583;48.714;9.386;2024-03-29T07:25:19;50.38;;;29.10;;
44850;SDS011;30583;48.714;9.386;2024-03-29T07:27:45;17.55;;;9.85;;
44850;SDS011;30583;48.714;9.386;2024-03-29T07:30:10;14.48;;;8.80;;
44850;SDS011;30583;48.714;9.386;2024-03-29T07:32:36;13.27;;;8.00;;
44850;SDS011;30583;48.714;9.386;2024-03-29T07:35:02;7.68;;;4.70;;
44850;SDS011;30583;48.714;9.386;2024-03-29T07:37:28;10.50;;;6.28;;
44850;SDS011;30583;48.714;9.386;2024-03-29T07:39:54;13.30;;;7.18;;
44850;SDS011;30583;48.714;9.386;2024-03-29T07:42:20;14.52;;;8.55;;
44850;SDS011;30583;48.714;9.386;2024-03-29T07:44:47;5.70;;;3.20;;
44850;SDS011;30583;48.714;9.386;2024-03-29T07:47:12;7.47;;;3.72;;
44850;SDS011;30583;48.714;9.386;2024-03-29T07:49:39;10.38;;;2.50;;
44850;SDS011;30583;48.714;9.386;2024-03-29T07:52:05;48.42;;;43.45;;
44850;SDS011;30583;48.714;9.386;2024-03-29T07:54:32;33.35;;;30.23;;
44850;SDS011;30583;48.714;9.386;2024-03-29T07:56:57;40.65;;;36.95;;
44850;SDS011;30583;48.714;9.386;2024-03-29T07:59:23;63.65;;;54.70;;
44850;SDS011;30583;48.714;9.386;2024-03-29T08:01:48;46.10;;;36.72;;
44850;SDS011;30583;48.714;9.386;2024-03-29T08:04:15;36.50;;;30.27;;
44850;SDS011;30583;48.714;9.386;2024-03-29T08:06:41;61.33;;;54.72;;
44850;SDS011;30583;48.714;9.386;2024-03-29T08:09:06;155.77;;;139.05;;
44850;SDS011;30583;48.714;9.386;2024-03-29T08:11:32;133.85;;;120.25;;
44850;SDS011;30583;48.714;9.386;2024-03-29T08:13:57;42.28;;;37.95;;
44850;SDS011;30583;48.714;9.386;2024-03-29T08:16:23;22.83;;;20.42;;
44850;SDS011;30583;48.714;9.386;2024-03-29T08:18:49;11.43;;;8.40;;
44850;SDS011;30583;48.714;9.386;2024-03-29T08:21:14;8.20;;;4.40;;
44850;SDS011;30583;48.714;9.386;2024-03-29T08:23:40;7.45;;;5.15;;
44850;SDS011;30583;48.714;9.386;2024-03-29T08:26:08;9.00;;;5.68;;
44850;SDS011;30583;48.714;9.386;2024-03-29T08:28:35;15.35;;;9.55;;
44850;SDS011;30583;48.714;9.386;2024-03-29T08:31:04;15.55;;;10.45;;
44850;SDS011;30583;48.714;9.386;2024-03-29T08:33:31;14.13;;;9.43;;
44850;SDS011;30583;48.714;9.386;2024-03-29T08:35:57;18.90;;;16.13;;
44850;SDS011;30583;48.714;9.386;2024-03-29T08:38:23;12.98;;;10.63;;
44850;SDS011;30583;48.714;9.386;2024-03-29T08:40:48;10.10;;;5.10;;
44850;SDS011;30583;48.714;9.386;2024-03-29T08:43:16;8.57;;;4.85;;
44850;SDS011;30583;48.714;9.386;2024-03-29T08:45:43;7.22;;;4.10;;
44850;SDS011;30583;48.714;9.386;2024-03-29T08:48:09;7.85;;;4.28;;
44850;SDS011;30583;48.714;9.386;2024-03-29T08:50:35;7.78;;;4.80;;
44850;SDS011;30583;48.714;9.386;2024-03-29T08:53:01;8.60;;;3.85;;
44850;SDS011;30583;48.714;9.386;2024-03-29T08:55:28;6.07;;;2.90;;
44850;SDS011;30583;48.714;9.386;2024-03-29T08:57:58;11.98;;;5.15;;
44850;SDS011;30583;48.714;9.386;2024-03-29T09:00:25;9.00;;;4.93;;
44850;SDS011;30583;48.714;9.386;2024-03-29T09:02:51;9.25;;;4.50;;
44850;SDS011;30583;48.714;9.386;2024-03-29T09:05:17;6.28;;;3.30;;
44850;SDS011;30583;48.714;9.386;2024-03-29T09:07:43;6.32;;;3.33;;
44850;SDS011;30583;48.714;9.386;2024-03-29T09:10:08;7.20;;;3.72;;
44850;SDS011;30583;48.714;9.386;2024-03-29T09:12:34;8.27;;;5.40;;
44850;SDS011;30583;48.714;9.386;2024-03-29T09:15:00;14.82;;;8.30;;
44850;SDS011;30583;48.714;9.386;2024-03-29T09:17:26;5.72;;;3.20;;
44850;SDS011;30583;48.714;9.386;2024-03-29T09:19:51;4.97;;;2.50;;
44850;SDS011;30583;48.714;9.386;2024-03-29T09:22:18;5.25;;;3.25;;
44850;SDS011;30583;48.714;9.386;2024-03-29T09:24:43;6.13;;;2.72;;
44850;SDS011;30583;48.714;9.386;2024-03-29T09:27:09;6.07;;;2.85;;
44850;SDS011;30583;48.714;9.386;2024-03-29T09:29:35;6.38;;;3.17;;
44850;SDS011;30583;48.714;9.386;2024-03-29T09:32:01;6.38;;;3.13;;
44850;SDS011;30583;48.714;9.386;2024-03-29T09:34:29;6.18;;;3.13;;
44850;SDS011;30583;48.714;9.386;2024-03-29T09:36:58;5.82;;;3.05;;
44850;SDS011;30583;48.714;9.386;2024-03-29T09:39:23;5.95;;;3.15;;
44850;SDS011;30583;48.714;9.386;2024-03-29T09:41:49;5.43;;;2.92;;
44850;SDS011;30583;48.714;9.386;2024-03-29T09:44:15;6.38;;;2.63;;
44850;SDS011;30583;48.714;9.386;2024-03-29T09:46:42;3.97;;;2.20;;
44850;SDS011;30583;48.714;9.386;2024-03-29T09:49:08;7.75;;;1.80;;
44850;SDS011;30583;48.714;9.386;2024-03-29T09:51:39;4.05;;;1.90;;
44850;SDS011;30583;48.714;9.386;2024-03-29T09:54:06;4.82;;;1.77;;
44850;SDS011;30583;48.714;9.386;2024-03-29T09:56:36;6.85;;;2.10;;
44850;SDS011;30583;48.714;9.386;2024-03-29T09:59:03;4.50;;;1.90;;
44850;SDS011;30583;48.714;9.386;2024-03-29T10:01:28;6.80;;;3.55;;
44850;SDS011;30583;48.714;9.386;2024-03-29T10:03:55;11.00;;;7.78;;
44850;SDS011;30583;48.714;9.386;2024-03-29T10:06:23;9.82;;;7.53;;
44850;SDS011;30583;48.714;9.386;2024-03-29T10:08:49;8.68;;;5.82;;
44850;SDS011;30583;48.714;9.386;2024-03-29T10:11:16;7.53;;;4.30;;
44850;SDS011;30583;48.714;9.386;2024-03-29T10:13:43;7.70;;;4.38;;
44850;SDS011;30583;48.714;9.386;2024-03-29T10:16:11;14.50;;;9.73;;
44850;SDS011;30583;48.714;9.386;2024-03-29T10:18:40;4.82;;;2.85;;
44850;SDS011;30583;48.714;9.386;2024-03-29T10:21:08;4.22;;;2.40;;
44850;SDS011;30583;48.714;9.386;2024-03-29T10:23:34;4.35;;;1.70;;
44850;SDS011;30583;48.714;9.386;2024-03-29T10:26:01;2.90;;;1.20;;
44850;SDS011;30583;48.714;9.386;2024-03-29T10:28:30;4.20;;;1.20;;
44850;SDS011;30583;48.714;9.386;2024-03-29T10:31:01;3.45;;;1.30;;
44850;SDS011;30583;48.714;9.386;2024-03-29T10:33:32;5.68;;;3.10;;
44850;SDS011;30583;48.714;9.386;2024-03-29T10:36:02;3.35;;;1.85;;
44850;SDS011;30583;48.714;9.386;2024-03-29T10:38:32;4.30;;;1.85;;
44850;SDS011;30583;48.714;9.386;2024-03-29T10:40:59;2.97;;;1.33;;
44850;SDS011;30583;48.714;9.386;2024-03-29T10:43:26;3.08;;;1.42;;
44850;SDS011;30583;48.714;9.386;2024-03-29T10:45:52;5.32;;;2.50;;
44850;SDS011;30583;48.714;9.386;2024-03-29T10:48:24;3.58;;;2.10;;
44850;SDS011;30583;48.714;9.386;2024-03-29T10:50:51;4.13;;;1.90;;
44850;SDS011;30583;48.714;9.386;2024-03-29T10:53:23;4.47;;;1.92;;
44850;SDS011;30583;48.714;9.386;2024-03-29T10:55:56;5.05;;;2.10;;
44850;SDS011;30583;48.714;9.386;2024-03-29T10:58:30;3.00;;;1.50;;
44850;SDS011;30583;48.714;9.386;2024-03-29T11:00:59;3.85;;;1.50;;
44850;SDS011;30583;48.714;9.386;2024-03-29T11:06:03;6.38;;;2.05;;
44850;SDS011;30583;48.714;9.386;2024-03-29T11:08:33;5.40;;;2.45;;
44850;SDS011;30583;48.714;9.386;2024-03-29T11:11:03;4.13;;;1.92;;
44850;SDS011;30583;48.714;9.386;2024-03-29T11:16:04;4.25;;;1.85;;
44850;SDS011;30583;48.714;9.386;2024-03-29T11:18:30;4.28;;;1.55;;
44850;SDS011;30583;48.714;9.386;2024-03-29T11:20:57;4.22;;;1.60;;
44850;SDS011;30583;48.714;9.386;2024-03-29T11:23:25;2.50;;;1.20;;
44850;SDS011;30583;48.714;9.386;2024-03-29T11:25:52;7.07;;;3.08;;
44850;SDS011;30583;48.714;9.386;2024-03-29T11:28:23;3.90;;;2.08;;
44850;SDS011;30583;48.714;9.386;2024-03-29T11:30:51;3.33;;;1.58;;
44850;SDS011;30583;48.714;9.386;2024-03-29T11:33:34;2.75;;;1.50;;
44850;SDS011;30583;48.714;9.386;2024-03-29T11:36:15;2.17;;;1.10;;
44850;SDS011;30583;48.714;9.386;2024-03-29T11:38:42;3.13;;;1.50;;
44850;SDS011;30583;48.714;9.386;2024-03-29T11:43:37;3.55;;;1.52;;
44850;SDS011;30583;48.714;9.386;2024-03-29T11:46:05;2.97;;;1.50;;
44850;SDS011;30583;48.714;9.386;2024-03-29T11:48:32;2.15;;;1.27;;
44850;SDS011;30583;48.714;9.386;2024-03-29T11:50:58;2.60;;;1.10;;
44850;SDS011;30583;48.714;9.386;2024-03-29T11:53:24;1.00;;;0.70;;
44850;SDS011;30583;48.714;9.386;2024-03-29T11:55:52;1.33;;;0.80;;
44850;SDS011;30583;48.714;9.386;2024-03-29T11:58:21;2.10;;;0.82;;
44850;SDS011;30583;48.714;9.386;2024-03-29T12:00:48;2.92;;;1.20;;
44850;SDS011;30583;48.714;9.386;2024-03-29T12:03:15;3.40;;;1.48;;
44850;SDS011;30583;48.714;9.386;2024-03-29T12:05:42;3.50;;;1.48;;
44850;SDS011;30583;48.714;9.386;2024-03-29T12:08:08;2.00;;;1.20;;
44850;SDS011;30583;48.714;9.386;2024-03-29T12:10:35;2.83;;;1.60;;
44850;SDS011;30583;48.714;9.386;2024-03-29T12:13:02;3.92;;;1.27;;
44850;SDS011;30583;48.714;9.386;2024-03-29T12:15:28;2.80;;;1.40;;
44850;SDS011;30583;48.714;9.386;2024-03-29T12:18:15;2.72;;;1.50;;
44850;SDS011;30583;48.714;9.386;2024-03-29T12:20:41;3.03;;;1.23;;
44850;SDS011;30583;48.714;9.386;2024-03-29T12:23:08;2.10;;;0.95;;
44850;SDS011;30583;48.714;9.386;2024-03-29T12:25:35;3.63;;;1.70;;
44850;SDS011;30583;48.714;9.386;2024-03-29T12:28:02;3.30;;;1.50;;
44850;SDS011;30583;48.714;9.386;2024-03-29T12:30:28;2.60;;;1.60;;
44850;SDS011;30583;48.714;9.386;2024-03-29T12:33:01;3.28;;;1.27;;
44850;SDS011;30583;48.714;9.386;2024-03-29T12:35:32;4.57;;;1.73;;
44850;SDS011;30583;48.714;9.386;2024-03-29T12:37:59;3.53;;;1.42;;
44850;SDS011;30583;48.714;9.386;2024-03-29T12:40:26;2.17;;;1.30;;
44850;SDS011;30583;48.714;9.386;2024-03-29T12:42:54;2.05;;;1.13;;
44850;SDS011;30583;48.714;9.386;2024-03-29T12:45:21;2.97;;;1.48;;
44850;SDS011;30583;48.714;9.386;2024-03-29T12:47:47;2.85;;;1.20;;
44850;SDS011;30583;48.714;9.386;2024-03-29T12:50:24;2.00;;;1.10;;
44850;SDS011;30583;48.714;9.386;2024-03-29T12:52:53;6.95;;;1.30;;
44850;SDS011;30583;48.714;9.386;2024-03-29T12:55:23;2.10;;;1.30;;
44850;SDS011;30583;48.714;9.386;2024-03-29T12:57:50;5.80;;;1.40;;
44850;SDS011;30583;48.714;9.386;2024-03-29T13:00:18;3.58;;;1.20;;
44850;SDS011;30583;48.714;9.386;2024-03-29T13:02:44;12.30;;;4.57;;
44850;SDS011;30583;48.714;9.386;2024-03-29T13:05:10;5.35;;;2.08;;
44850;SDS011;30583;48.714;9.386;2024-03-29T13:07:36;12.48;;;4.35;;
44850;SDS011;30583;48.714;9.386;2024-03-29T13:10:02;3.95;;;2.10;;
44850;SDS011;30583;48.714;9.386;2024-03-29T13:12:30;4.07;;;1.88;;
44850;SDS011;30583;48.714;9.386;2024-03-29T13:14:56;10.13;;;4.30;;
44850;SDS011;30583;48.714;9.386;2024-03-29T13:17:29;7.05;;;2.00;;
44850;SDS011;30583;48.714;9.386;2024-03-29T13:19:54;3.55;;;1.50;;
44850;SDS011;30583;48.714;9.386;2024-03-29T13:22:20;3.60;;;1.63;;
44850;SDS011;30583;48.714;9.386;2024-03-29T13:24:46;3.72;;;1.63;;
44850;SDS011;30583;48.714;9.386;2024-03-29T13:27:11;2.83;;;1.13;;
44850;SDS011;30583;48.714;9.386;2024-03-29T13:29:38;2.38;;;1.10;;
44850;SDS011;30583;48.714;9.386;2024-03-29T13:32:04;3.92;;;1.10;;
44850;SDS011;30583;48.714;9.386;2024-03-29T13:34:30;3.53;;;1.40;;
44850;SDS011;30583;48.714;9.386;2024-03-29T13:36:55;2.53;;;1.00;;
44850;SDS011;30583;48.714;9.386;2024-03-29T13:39:21;2.88;;;1.40;;
44850;SDS011;30583;48.714;9.386;2024-03-29T13:41:48;2.78;;;1.20;;
44850;SDS011;30583;48.714;9.386;2024-03-29T13:44:14;2.15;;;1.05;;
44850;SDS011;30583;48.714;9.386;2024-03-29T13:46:42;2.20;;;0.90;;
44850;SDS011;30583;48.714;9.386;2024-03-29T13:49:08;2.22;;;0.88;;
44850;SDS011;30583;48.714;9.386;2024-03-29T13:51:34;3.17;;;0.98;;
44850;SDS011;30583;48.714;9.386;2024-03-29T13:54:00;3.65;;;1.00;;
44850;SDS011;30583;48.714;9.386;2024-03-29T13:56:25;1.90;;;1.10;;
44850;SDS011;30583;48.714;9.386;2024-03-29T13:58:51;2.10;;;1.25;;
44850;SDS011;30583;48.714;9.386;2024-03-29T14:01:17;4.40;;;1.20;;
44850;SDS011;30583;48.714;9.386;2024-03-29T14:03:42;2.63;;;1.70;;
44850;SDS011;30583;48.714;9.386;2024-03-29T14:06:08;3.33;;;1.40;;
44850;SDS011;30583;48.714;9.386;2024-03-29T14:08:34;2.35;;;1.23;;
44850;SDS011;30583;48.714;9.386;2024-03-29T14:11:00;2.33;;;1.05;;
44850;SDS011;30583;48.714;9.386;2024-03-29T14:13:27;2.95;;;1.27;;
44850;SDS011;30583;48.714;9.386;2024-03-29T14:15:53;2.63;;;1.20;;
44850;SDS011;30583;48.714;9.386;2024-03-29T14:18:19;2.85;;;0.98;;
44850;SDS011;30583;48.714;9.386;2024-03-29T14:20:45;2.40;;;1.15;;
44850;SDS011;30583;48.714;9.386;2024-03-29T14:23:11;3.67;;;1.95;;
44850;SDS011;30583;48.714;9.386;2024-03-29T14:25:39;2.08;;;1.15;;
44850;SDS011;30583;48.714;9.386;2024-03-29T14:28:05;2.10;;;1.02;;
44850;SDS011;30583;48.714;9.386;2024-03-29T14:30:31;3.10;;;1.50;;
44850;SDS011;30583;48.714;9.386;2024-03-29T14:32:57;4.05;;;1.63;;
44850;SDS011;30583;48.714;9.386;2024-03-29T14:35:26;3.70;;;1.67;;
44850;SDS011;30583;48.714;9.386;2024-03-29T14:37:54;3.08;;;1.25;;
44850;SDS011;30583;48.714;9.386;2024-03-29T14:40:19;2.55;;;1.00;;
44850;SDS011;30583;48.714;9.386;2024-03-29T14:42:45;4.10;;;1.13;;
44850;SDS011;30583;48.714;9.386;2024-03-29T14:45:10;2.30;;;1.00;;
44850;SDS011;30583;48.714;9.386;2024-03-29T14:47:39;3.28;;;1.23;;
44850;SDS011;30583;48.714;9.386;2024-03-29T14:50:05;2.15;;;1.00;;
44850;SDS011;30583;48.714;9.386;2024-03-29T14:52:36;2.45;;;1.00;;